Hillsborough, New Hampshire
Current Conditions -  °F | °C
As of 10:51 AM on Saturday 20 Dec 2014 (Local Time) from KCON Reporting Station
Clear Clear  
Wind Chill: 24°   Ceiling: Unl
Heat Index: 30°   Visibility: 10mi
Dew Point: 18°   Wind: 6mph
Humidity: 61%   Direction: 30°NNE
Pressure: 30.3"   Gusts: NA
Location:  43.1281°N, 71.9266°W
Report Text: KCON 201551Z AUTO 03005KT 10SM CLR M01/M08 A3030 RMK AO2 SLP267 T10111078
Loading
Personal Weather Stations






























Interactive Weather Map New forecast layout! Learn more

10-Day Weather Forecast

Advertisements
Track Severe Weather on mobile